Time;durP1;ratioP1;P1;durP2;ratioP2;P2;SDS_P1;SDS_P2;PMS_P1;PMS_P2;Temp;Humidity;BMP_temperature;BMP_pressure;BME280_temperature;BME280_humidity;BME280_pressure;Samples;Min_cycle;Max_cycle;Signal;HPM_P1;HPM_P2
2021/08/06 00:01:17;;;;;;;1999.90;999.90;;;;;;;12.77;57.86;100245.19;5009229;27;99414;-74
2021/08/06 00:03:46;;;;;;;1999.90;999.90;;;;;;;12.74;57.75;100252.28;5035277;27;97258;-73
2021/08/06 00:06:17;;;;;;;1999.90;999.90;;;;;;;12.67;57.83;100242.47;5012966;27;97353;-74
2021/08/06 00:08:45;;;;;;;1999.90;999.90;;;;;;;12.63;57.74;100238.91;5014678;27;98565;-74
2021/08/06 00:11:13;;;;;;;1999.90;999.90;;;;;;;12.60;57.96;100235.31;5013442;27;99981;-74
2021/08/06 00:13:40;;;;;;;1999.90;999.90;;;;;;;12.55;57.89;100237.97;5013922;27;96892;-74
2021/08/06 00:16:08;;;;;;;1999.90;999.90;;;;;;;12.52;57.83;100245.06;5016444;27;97255;-74
2021/08/06 00:18:36;;;;;;;1999.90;999.90;;;;;;;12.47;58.05;100238.81;5007332;27;99714;-73
2021/08/06 00:21:05;;;;;;;1999.90;999.90;;;;;;;12.44;57.98;100242.34;5007568;27;99221;-74
2021/08/06 00:23:32;;;;;;;1999.90;999.90;;;;;;;12.40;57.92;100247.69;5028785;27;97025;-74
2021/08/06 00:26:00;;;;;;;1999.90;999.90;;;;;;;12.37;58.07;100236.97;5005117;27;97280;-73
2021/08/06 00:28:28;;;;;;;1999.90;999.90;;;;;;;12.33;58.10;100240.53;4995205;27;98079;-74
2021/08/06 00:30:56;;;;;;;1999.90;999.90;;;;;;;12.31;58.13;100236.97;5001637;28;100907;-73
2021/08/06 00:33:24;;;;;;;1999.90;999.90;;;;;;;12.26;57.94;100239.59;5011416;27;97588;-74
2021/08/06 00:35:52;;;;;;;1999.90;999.90;;;;;;;12.60;57.77;100236.19;5009948;27;97332;-74
2021/08/06 00:38:24;;;;;;;1999.90;999.90;;;;;;;12.79;57.44;100226.47;5021039;27;98067;-74
2021/08/06 00:40:53;;;;;;;1999.90;999.90;;;;;;;12.94;57.20;100232.78;4996873;28;100160;-74
2021/08/06 00:43:22;;;;;;;1999.90;999.90;;;;;;;12.60;58.02;100232.66;5009534;27;97348;-73
2021/08/06 00:45:50;;;;;;;1999.90;999.90;;;;;;;12.48;58.02;100232.59;4998714;28;97294;-73
2021/08/06 00:48:25;;;;;;;1999.90;999.90;;;;;;;12.37;58.18;100235.22;5009314;27;100149;-73
2021/08/06 00:50:56;;;;;;;1999.90;999.90;;;;;;;12.73;57.57;100243.38;5015139;27;99163;-73
2021/08/06 00:53:26;;;;;;;1999.90;999.90;;;;;;;12.88;57.22;100238.09;5010334;27;98036;-74
2021/08/06 00:55:58;;;;;;;1999.90;999.90;;;;;;;12.98;57.03;100244.38;4995118;28;97368;-74
2021/08/06 00:58:26;;;;;;;1999.90;999.90;;;;;;;13.03;56.77;100239.94;5026086;27;97546;-74
2021/08/06 01:00:55;;;;;;;1999.90;999.90;;;;;;;13.06;56.88;100242.63;5011128;27;98184;-75
2021/08/06 01:03:38;;;;;;;1999.90;999.90;;;;;;;13.09;56.77;100232.81;5014230;27;97264;-73
2021/08/06 01:06:12;;;;;;;1999.90;999.90;;;;;;;13.14;56.65;100238.19;5034041;27;97263;-72
2021/08/06 01:08:50;;;;;;;1999.90;999.90;;;;;;;13.15;56.72;100231.94;5037980;27;98645;-73
2021/08/06 01:11:20;;;;;;;1999.90;999.90;;;;;;;13.17;56.56;100234.66;5022639;27;97860;-73
2021/08/06 01:13:53;;;;;;;1999.90;999.90;;;;;;;13.18;56.55;100226.63;5009417;28;97313;-73
2021/08/06 01:16:27;;;;;;;1999.90;999.90;;;;;;;13.18;56.47;100227.50;5021619;27;97195;-73
2021/08/06 01:19:02;;;;;;;1999.90;999.90;;;;;;;13.18;56.41;100231.97;5013616;27;97768;-73
2021/08/06 01:21:32;;;;;;;1999.90;999.90;;;;;;;13.20;56.23;100234.66;5033300;27;98311;-73
2021/08/06 01:24:04;;;;;;;1999.90;999.90;;;;;;;13.18;55.99;100238.19;5019842;27;97618;-73
2021/08/06 01:26:34;;;;;;;1999.90;999.90;;;;;;;13.17;56.29;100237.31;5007681;27;97785;-74
2021/08/06 01:29:02;;;;;;;1999.90;999.90;;;;;;;13.14;56.43;100235.53;5017035;27;97716;-74
2021/08/06 01:31:39;;;;;;;1999.90;999.90;;;;;;;13.11;56.37;100231.06;5016584;27;98197;-73
2021/08/06 01:34:20;;;;;;;1999.90;999.90;;;;;;;13.10;56.56;100223.03;5019979;27;97244;-73
2021/08/06 01:36:49;;;;;;;1999.90;999.90;;;;;;;13.08;56.42;100231.06;5016598;27;98456;-73
2021/08/06 01:39:43;;;;;;;1999.90;999.90;;;;;;;13.07;56.44;100221.28;5017968;27;98445;-73
2021/08/06 01:42:16;;;;;;;1999.90;999.90;;;;;;;13.06;56.35;100224.81;5031455;27;97798;-73
2021/08/06 01:44:53;;;;;;;1999.90;999.90;;;;;;;13.06;56.43;100215.91;5002590;28;97591;-74
2021/08/06 01:47:30;;;;;;;1999.90;999.90;;;;;;;13.04;56.16;100215.00;4998890;27;97420;-74
2021/08/06 01:50:06;;;;;;;1999.90;999.90;;;;;;;13.02;55.92;100219.47;5002234;28;100785;-74
2021/08/06 01:52:39;;;;;;;1999.90;999.90;;;;;;;12.98;55.90;100218.53;5002855;27;98091;-74
2021/08/06 01:55:11;;;;;;;1999.90;999.90;;;;;;;12.95;55.98;100206.94;5018157;27;97547;-73
2021/08/06 01:57:48;;;;;;;1999.90;999.90;;;;;;;12.94;55.99;100205.19;5000287;28;97199;-73
2021/08/06 02:00:18;;;;;;;1999.90;999.90;;;;;;;12.91;56.07;100200.72;4999126;27;100491;-74
2021/08/06 02:02:46;;;;;;;1999.90;999.90;;;;;;;12.91;56.37;100210.53;5009592;27;99689;-73
2021/08/06 02:05:23;;;;;;;1999.90;999.90;;;;;;;12.90;56.50;100214.97;5011948;27;97918;-73
2021/08/06 02:07:53;;;;;;;1999.90;999.90;;;;;;;12.91;56.46;100211.38;5012912;27;97547;-73
2021/08/06 02:10:24;;;;;;;1999.90;999.90;;;;;;;12.92;56.53;100212.28;5017035;27;102105;-74
2021/08/06 02:12:54;;;;;;;1999.90;999.90;;;;;;;12.91;56.62;100206.03;5030411;27;97553;-73
2021/08/06 02:15:22;;;;;;;1999.90;999.90;;;;;;;12.91;56.64;100205.19;5001925;27;97496;-73
2021/08/06 02:17:53;;;;;;;1999.90;999.90;;;;;;;12.91;56.73;100197.16;5015999;27;98155;-73
2021/08/06 02:20:31;;;;;;;1999.90;999.90;;;;;;;12.91;56.88;100205.19;5031580;27;98168;-74
2021/08/06 02:23:03;;;;;;;1999.90;999.90;;;;;;;12.90;56.70;100208.72;4999887;28;98152;-74
2021/08/06 02:25:32;;;;;;;1999.90;999.90;;;;;;;12.89;56.71;100193.59;5018229;27;97407;-74
2021/08/06 02:28:02;;;;;;;1999.90;999.90;;;;;;;12.91;56.71;100205.19;5033052;27;97400;-74
2021/08/06 02:30:36;;;;;;;1999.90;999.90;;;;;;;12.88;56.62;100189.13;5015735;27;99250;-74
2021/08/06 02:33:04;;;;;;;1999.90;999.90;;;;;;;12.85;56.40;100190.03;5032544;27;97553;-73
2021/08/06 02:35:32;;;;;;;1999.90;999.90;;;;;;;12.85;56.35;100199.81;5008499;27;97671;-73
2021/08/06 02:38:00;;;;;;;1999.90;999.90;;;;;;;12.83;56.34;100197.16;5013893;27;97951;-73
2021/08/06 02:40:29;;;;;;;1999.90;999.90;;;;;;;12.82;56.24;100190.00;5034301;27;98915;-73
2021/08/06 02:42:57;;;;;;;1999.90;999.90;;;;;;;12.80;56.12;100178.44;5026884;27;98670;-73
2021/08/06 02:45:26;;;;;;;1999.90;999.90;;;;;;;12.78;55.72;100171.31;5015894;27;98107;-74
2021/08/06 02:47:54;;;;;;;1999.90;999.90;;;;;;;12.76;55.84;100174.00;5029968;27;98204;-73
2021/08/06 02:50:22;;;;;;;1999.90;999.90;;;;;;;12.73;55.70;100167.75;5017649;27;99418;-73
2021/08/06 02:52:50;;;;;;;1999.90;999.90;;;;;;;12.72;55.56;100174.88;5031979;27;98051;-73
2021/08/06 02:55:19;;;;;;;1999.90;999.90;;;;;;;12.71;55.71;100172.19;5016211;27;97592;-73
2021/08/06 02:57:47;;;;;;;1999.90;999.90;;;;;;;12.70;55.56;100167.72;5031438;27;97825;-73
2021/08/06 03:00:17;;;;;;;1999.90;999.90;;;;;;;12.68;55.76;100169.50;5012048;27;100764;-74
2021/08/06 03:02:46;;;;;;;1999.90;999.90;;;;;;;12.67;55.55;100165.06;5033559;27;98695;-72
2021/08/06 03:05:13;;;;;;;1999.90;999.90;;;;;;;12.68;55.48;100164.16;5029479;27;97361;-73
2021/08/06 03:07:48;;;;;;;1999.90;999.90;;;;;;;12.66;55.58;100152.59;5017242;27;97643;-73
2021/08/06 03:10:19;;;;;;;1999.90;999.90;;;;;;;12.64;55.51;100157.03;5013498;27;100794;-74
2021/08/06 03:12:47;;;;;;;1999.90;999.90;;;;;;;12.63;55.53;100161.50;5028689;27;100409;-74
2021/08/06 03:15:16;;;;;;;1999.90;999.90;;;;;;;12.62;55.76;100166.84;5013756;27;97519;-73
2021/08/06 03:17:46;;;;;;;1999.90;999.90;;;;;;;12.60;55.53;100171.28;5033288;27;98482;-73
2021/08/06 03:20:16;;;;;;;1999.90;999.90;;;;;;;12.57;55.40;100163.22;5015506;27;98125;-73
2021/08/06 03:22:47;;;;;;;1999.90;999.90;;;;;;;12.55;55.51;100163.22;5016643;27;101013;-73
2021/08/06 03:25:15;;;;;;;1999.90;999.90;;;;;;;12.54;55.47;100155.22;5014011;27;96970;-73
2021/08/06 03:27:43;;;;;;;1999.90;999.90;;;;;;;12.53;55.57;100150.78;5012991;27;97673;-73
2021/08/06 03:30:14;;;;;;;1999.90;999.90;;;;;;;12.56;55.69;100156.13;4992963;27;99462;-73
2021/08/06 03:32:42;;;;;;;1999.90;999.90;;;;;;;12.55;55.64;100147.22;5011660;27;100167;-73
2021/08/06 03:35:14;;;;;;;1999.90;999.90;;;;;;;12.56;55.66;100145.44;5011751;27;97279;-73
2021/08/06 03:37:43;;;;;;;1999.90;999.90;;;;;;;12.54;55.40;100147.22;4999757;28;96874;-73
2021/08/06 03:40:13;;;;;;;1999.90;999.90;;;;;;;12.54;55.53;100149.88;5030521;27;97930;-74
2021/08/06 03:42:42;;;;;;;1999.90;999.90;;;;;;;12.53;55.50;100148.13;5008435;27;99616;-74
2021/08/06 03:45:12;;;;;;;1999.90;999.90;;;;;;;12.51;55.51;100142.75;5016742;27;97124;-74
2021/08/06 03:47:39;;;;;;;1999.90;999.90;;;;;;;12.50;55.65;100141.00;5009922;27;97316;-73
2021/08/06 03:50:08;;;;;;;1999.90;999.90;;;;;;;12.47;55.62;100143.66;5015397;27;97789;-74
2021/08/06 03:52:39;;;;;;;1999.90;999.90;;;;;;;12.50;55.54;100153.44;5010359;28;98934;-74
2021/08/06 03:55:08;;;;;;;1999.90;999.90;;;;;;;12.48;55.68;100155.19;5000762;28;97264;-74
2021/08/06 03:57:48;;;;;;;1999.90;999.90;;;;;;;12.47;55.67;100161.44;5000440;28;97224;-73
2021/08/06 04:00:18;;;;;;;1999.90;999.90;;;;;;;12.46;55.68;100155.19;5005517;27;98157;-73
2021/08/06 04:02:47;;;;;;;1999.90;999.90;;;;;;;12.49;55.59;100167.66;4997295;28;99628;-73
2021/08/06 04:05:16;;;;;;;1999.90;999.90;;;;;;;12.47;55.63;100170.34;5015870;27;97115;-73
2021/08/06 04:07:47;;;;;;;1999.90;999.90;;;;;;;12.46;55.68;100165.88;5013763;27;98408;-73
2021/08/06 04:10:20;;;;;;;1999.90;999.90;;;;;;;12.44;55.77;100164.97;4997641;27;99398;-74
2021/08/06 04:12:48;;;;;;;1999.90;999.90;;;;;;;12.44;55.67;100164.97;5012948;27;100606;-73
2021/08/06 04:15:17;;;;;;;1999.90;999.90;;;;;;;12.44;55.64;100167.63;5014436;27;97529;-73
2021/08/06 04:17:45;;;;;;;1999.90;999.90;;;;;;;12.45;55.42;100168.53;5014927;27;97554;-74
2021/08/06 04:20:14;;;;;;;1999.90;999.90;;;;;;;12.42;55.55;100165.88;4999608;27;97220;-73
2021/08/06 04:22:42;;;;;;;1999.90;999.90;;;;;;;12.44;55.69;100169.41;4999209;28;100496;-74
2021/08/06 04:25:12;;;;;;;1999.90;999.90;;;;;;;12.41;55.76;100170.31;4996067;27;97579;-73
2021/08/06 04:27:40;;;;;;;1999.90;999.90;;;;;;;12.40;55.67;100168.50;5031378;27;98372;-73
2021/08/06 04:30:09;;;;;;;1999.90;999.90;;;;;;;12.37;55.81;100167.59;5015461;27;100340;-73
2021/08/06 04:32:37;;;;;;;1999.90;999.90;;;;;;;12.40;55.98;100162.31;5031090;27;97912;-73
2021/08/06 04:35:06;;;;;;;1999.90;999.90;;;;;;;12.39;55.78;100157.84;5029628;27;97248;-74
2021/08/06 04:37:34;;;;;;;1999.90;999.90;;;;;;;12.42;55.74;100157.88;5012877;27;97302;-74
2021/08/06 04:40:02;;;;;;;1999.90;999.90;;;;;;;12.42;55.88;100157.88;5016587;27;98810;-73
2021/08/06 04:42:31;;;;;;;1999.90;999.90;;;;;;;12.41;55.70;100153.41;4993677;27;99408;-74
2021/08/06 04:44:59;;;;;;;1999.90;999.90;;;;;;;12.42;55.59;100149.88;5033156;27;99440;-73
2021/08/06 04:47:27;;;;;;;1999.90;999.90;;;;;;;12.39;55.70;100150.72;4999200;27;98258;-73
2021/08/06 04:49:54;;;;;;;1999.90;999.90;;;;;;;12.38;55.97;100150.72;5019613;27;99458;-74
2021/08/06 04:52:22;;;;;;;1999.90;999.90;;;;;;;12.39;55.90;100149.84;5035503;27;99251;-74
2021/08/06 04:54:50;;;;;;;1999.90;999.90;;;;;;;12.38;55.69;100142.72;5002102;28;97875;-74
2021/08/06 04:57:17;;;;;;;1999.90;999.90;;;;;;;12.35;55.98;100143.59;5019719;27;97950;-73
2021/08/06 04:59:46;;;;;;;1999.90;999.90;;;;;;;12.34;55.81;100143.59;5031969;27;99671;-72
2021/08/06 05:02:14;;;;;;;1999.90;999.90;;;;;;;12.33;55.75;100142.69;5016482;27;98745;-74
2021/08/06 05:04:42;;;;;;;1999.90;999.90;;;;;;;12.30;55.67;100148.03;5014658;27;97369;-74
2021/08/06 05:07:16;;;;;;;1999.90;999.90;;;;;;;12.27;56.29;100141.78;5033522;27;97213;-73
2021/08/06 05:09:44;;;;;;;1999.90;999.90;;;;;;;12.30;55.91;100133.78;5014758;27;100000;-73
2021/08/06 05:12:11;;;;;;;1999.90;999.90;;;;;;;12.33;55.99;100133.81;5013330;27;97833;-73
2021/08/06 05:14:39;;;;;;;1999.90;999.90;;;;;;;12.37;56.12;100135.59;5033535;27;98195;-74
2021/08/06 05:17:09;;;;;;;1999.90;999.90;;;;;;;12.38;56.13;100134.72;5016994;27;97715;-74
2021/08/06 05:19:37;;;;;;;1999.90;999.90;;;;;;;12.41;55.92;100132.06;5034898;27;98706;-74
2021/08/06 05:22:06;;;;;;;1999.90;999.90;;;;;;;12.41;55.92;100130.28;5017342;27;100375;-74
2021/08/06 05:24:33;;;;;;;1999.90;999.90;;;;;;;12.42;56.09;100129.38;5013988;27;98100;-73
2021/08/06 05:27:02;;;;;;;1999.90;999.90;;;;;;;12.44;55.95;100140.97;5030164;27;97652;-74
2021/08/06 05:29:31;;;;;;;1999.90;999.90;;;;;;;12.43;56.08;100135.63;5013002;27;100717;-74
2021/08/06 05:31:58;;;;;;;1999.90;999.90;;;;;;;12.42;55.85;100134.72;4998756;28;99895;-73
2021/08/06 05:34:28;;;;;;;1999.90;999.90;;;;;;;12.42;55.79;100133.84;5002248;27;97244;-74
2021/08/06 05:36:56;;;;;;;1999.90;999.90;;;;;;;12.43;55.96;100135.63;4999711;28;97169;-74
2021/08/06 05:39:24;;;;;;;1999.90;999.90;;;;;;;12.43;55.96;100135.63;5028904;27;98796;-74
2021/08/06 05:41:52;;;;;;;1999.90;999.90;;;;;;;12.43;55.91;100127.63;5013628;27;99345;-73
2021/08/06 05:44:20;;;;;;;1999.90;999.90;;;;;;;12.42;56.06;100129.38;5013037;27;97672;-73
2021/08/06 05:46:48;;;;;;;1999.90;999.90;;;;;;;12.46;56.07;100120.50;5032221;27;97657;-74
2021/08/06 05:49:15;;;;;;;1999.90;999.90;;;;;;;12.49;56.12;100131.19;5012790;27;97568;-74
2021/08/06 05:51:44;;;;;;;1999.90;999.90;;;;;;;12.51;56.41;100120.53;5028630;27;100508;-73
2021/08/06 05:54:13;;;;;;;1999.90;999.90;;;;;;;12.54;56.43;100123.19;5018113;27;97963;-74
2021/08/06 05:56:44;;;;;;;1999.90;999.90;;;;;;;12.53;56.28;100132.97;5033791;27;97657;-74
2021/08/06 05:59:11;;;;;;;1999.90;999.90;;;;;;;12.54;56.16;100133.88;5017953;27;98666;-74
2021/08/06 06:01:39;;;;;;;1999.90;999.90;;;;;;;12.53;56.36;100132.97;5011690;28;100280;-74
2021/08/06 06:04:29;;;;;;;1999.90;999.90;;;;;;;12.52;56.52;100125.88;5014176;27;97738;-74
2021/08/06 06:07:18;;;;;;;1999.90;999.90;;;;;;;12.55;56.54;100123.19;5015584;27;97670;-73
2021/08/06 06:09:46;;;;;;;1999.90;999.90;;;;;;;12.57;56.67;100124.09;5013980;27;99680;-74
2021/08/06 06:12:13;;;;;;;1999.90;999.90;;;;;;;12.61;56.64;100125.91;5016677;27;98354;-73
2021/08/06 06:14:41;;;;;;;1999.90;999.90;;;;;;;12.62;56.87;100129.47;5017459;27;97923;-73
2021/08/06 06:17:11;;;;;;;1999.90;999.90;;;;;;;12.64;56.80;100130.34;5016395;27;97083;-72
2021/08/06 06:19:39;;;;;;;1999.90;999.90;;;;;;;12.64;57.05;100130.34;5017038;27;98026;-74
2021/08/06 06:22:08;;;;;;;1999.90;999.90;;;;;;;12.65;57.07;100132.13;5000287;28;98513;-73
2021/08/06 06:24:37;;;;;;;1999.90;999.90;;;;;;;12.67;57.05;100138.38;5017998;27;97443;-74
2021/08/06 06:27:06;;;;;;;1999.90;999.90;;;;;;;12.67;57.31;100136.59;5016787;27;97736;-74
2021/08/06 06:29:34;;;;;;;1999.90;999.90;;;;;;;12.70;57.22;100138.34;5017058;27;98176;-74
2021/08/06 06:32:03;;;;;;;1999.90;999.90;;;;;;;12.73;57.28;100141.06;5011827;27;97970;-74
2021/08/06 06:34:31;;;;;;;1999.90;999.90;;;;;;;12.74;57.39;100141.06;5013963;27;97266;-73
2021/08/06 06:36:59;;;;;;;1999.90;999.90;;;;;;;12.79;57.39;100133.03;5032471;27;97339;-73
2021/08/06 06:39:26;;;;;;;1999.90;999.90;;;;;;;12.81;57.45;100133.94;5015562;27;99324;-74
2021/08/06 06:41:56;;;;;;;1999.90;999.90;;;;;;;12.83;57.49;100137.50;4999924;28;100173;-73
2021/08/06 06:44:26;;;;;;;1999.90;999.90;;;;;;;12.88;57.45;100138.41;5011800;27;97465;-74
2021/08/06 06:46:54;;;;;;;1999.90;999.90;;;;;;;12.90;57.48;100137.53;5031813;27;97663;-74
2021/08/06 06:49:22;;;;;;;1999.90;999.90;;;;;;;12.90;57.39;100136.63;5032186;27;99584;-73
2021/08/06 06:51:50;;;;;;;1999.90;999.90;;;;;;;;;;5032782;27;100758;-74
2021/08/06 06:54:17;;;;;;;1999.90;999.90;;;;;;;12.97;57.40;100146.41;5016532;27;97953;-74
2021/08/06 06:56:45;;;;;;;1999.90;999.90;;;;;;;12.96;57.50;100139.31;5015324;27;97144;-74
2021/08/06 06:59:14;;;;;;;1999.90;999.90;;;;;;;12.99;57.48;100140.22;5000131;27;100570;-74
2021/08/06 07:01:42;;;;;;;1999.90;999.90;;;;;;;13.01;57.50;100126.88;5017057;27;99199;-72
2021/08/06 07:04:10;;;;;;;1999.90;999.90;;;;;;;13.04;57.42;100126.88;5018348;27;96925;-74
2021/08/06 07:06:38;;;;;;;1999.90;999.90;;;;;;;13.06;57.31;100126.00;5016579;27;97348;-73
2021/08/06 07:09:08;;;;;;;1999.90;999.90;;;;;;;13.11;57.51;100137.56;5013773;27;101103;-72
2021/08/06 07:11:37;;;;;;;1999.90;999.90;;;;;;;13.17;57.33;100133.13;5026324;27;97775;-73
2021/08/06 07:14:05;;;;;;;1999.90;999.90;;;;;;;13.20;57.26;100134.03;5017510;27;97020;-74
2021/08/06 07:16:34;;;;;;;1999.90;999.90;;;;;;;13.23;57.10;100128.66;5015712;27;97352;-73
2021/08/06 07:19:02;;;;;;;1999.90;999.90;;;;;;;13.26;57.06;100135.81;5016777;27;97647;-73
2021/08/06 07:21:30;;;;;;;1999.90;999.90;;;;;;;13.28;57.06;100134.91;5017709;27;97231;-74
2021/08/06 07:23:58;;;;;;;1999.90;999.90;;;;;;;13.31;57.00;100140.25;5019130;27;97173;-74
2021/08/06 07:26:25;;;;;;;1999.90;999.90;;;;;;;13.35;56.93;100134.00;5030140;27;97081;-73
2021/08/06 07:28:53;;;;;;;1999.90;999.90;;;;;;;13.39;56.89;100133.09;4989076;28;99225;-73
2021/08/06 07:31:21;;;;;;;1999.90;999.90;;;;;;;13.42;56.95;100129.56;4998941;27;97561;-74
2021/08/06 07:33:50;;;;;;;1999.90;999.90;;;;;;;13.43;56.79;100132.22;5010245;27;96730;-74
2021/08/06 07:36:18;;;;;;;1999.90;999.90;;;;;;;13.48;56.81;100134.88;5016944;27;97812;-74
2021/08/06 07:38:46;;;;;;;1999.90;999.90;;;;;;;13.50;56.88;100136.66;5011755;27;99979;-73
2021/08/06 07:41:17;;;;;;;1999.90;999.90;;;;;;;13.51;56.70;100134.91;5028412;27;98298;-73
2021/08/06 07:43:45;;;;;;;1999.90;999.90;;;;;;;13.52;56.75;100134.88;5012265;27;97162;-74
2021/08/06 07:46:14;;;;;;;1999.90;999.90;;;;;;;13.55;56.74;100134.00;5028438;27;97759;-73
2021/08/06 07:48:41;;;;;;;1999.90;999.90;;;;;;;13.59;56.53;100133.06;5013946;27;100560;-74
2021/08/06 07:51:11;;;;;;;1999.90;999.90;;;;;;;13.63;56.84;100132.19;5014667;27;98973;-73
2021/08/06 07:53:39;;;;;;;1999.90;999.90;;;;;;;13.65;56.77;100136.66;5000062;28;97253;-74
2021/08/06 07:56:06;;;;;;;1999.90;999.90;;;;;;;13.67;57.00;100124.19;5032086;27;97958;-74
2021/08/06 07:58:34;;;;;;;1999.90;999.90;;;;;;;13.73;56.94;100126.81;5016054;27;99384;-74
2021/08/06 08:01:02;;;;;;;1999.90;999.90;;;;;;;13.77;56.93;100117.91;4996962;28;97677;-73
2021/08/06 08:03:30;;;;;;;1999.90;999.90;;;;;;;13.82;56.79;100110.78;5012412;27;96955;-73
2021/08/06 08:05:58;;;;;;;1999.90;999.90;;;;;;;13.87;56.91;100118.81;5033611;27;97026;-73
2021/08/06 08:08:27;;;;;;;1999.90;999.90;;;;;;;13.92;56.77;100119.69;5029485;27;100440;-74
2021/08/06 08:10:55;;;;;;;1999.90;999.90;;;;;;;13.96;56.73;100119.69;5014278;27;99085;-73
2021/08/06 08:13:25;;;;;;;1999.90;999.90;;;;;;;14.03;56.35;100117.84;5016759;27;98056;-75
2021/08/06 08:15:59;;;;;;;1999.90;999.90;;;;;;;14.07;56.53;100117.84;4997633;28;96879;-74
2021/08/06 08:18:28;;;;;;;1999.90;999.90;;;;;;;14.11;56.72;100114.28;5013473;27;99006;-72
2021/08/06 08:20:56;;;;;;;1999.90;999.90;;;;;;;14.14;56.63;100113.34;5001528;28;100270;-74
2021/08/06 08:23:25;;;;;;;1999.90;999.90;;;;;;;14.21;56.52;100114.25;5020662;27;97185;-74
2021/08/06 08:25:54;;;;;;;1999.90;999.90;;;;;;;14.26;56.23;100110.66;5033991;27;97672;-75
2021/08/06 08:28:27;;;;;;;1999.90;999.90;;;;;;;14.31;56.26;100111.50;5011572;27;100476;-75
2021/08/06 08:30:56;;;;;;;1999.90;999.90;;;;;;;14.35;56.20;100107.94;5035032;27;98483;-74
2021/08/06 08:33:25;;;;;;;1999.90;999.90;;;;;;;14.06;57.13;100109.84;5016962;27;97411;-74
2021/08/06 08:35:54;;;;;;;1999.90;999.90;;;;;;;13.97;57.51;100102.72;5021087;27;96884;-74
2021/08/06 08:38:22;;;;;;;1999.90;999.90;;;;;;;13.93;57.50;100111.63;5000954;27;100626;-74
2021/08/06 08:40:51;;;;;;;1999.90;999.90;;;;;;;13.91;57.70;100115.25;5019829;27;98675;-73
2021/08/06 08:43:20;;;;;;;1999.90;999.90;;;;;;;14.16;56.88;100111.56;4999113;27;97868;-74
2021/08/06 08:45:48;;;;;;;1999.90;999.90;;;;;;;14.03;57.33;100115.19;5020054;27;97094;-74
2021/08/06 08:48:19;;;;;;;1999.90;999.90;;;;;;;14.00;57.54;100107.19;5013150;27;97784;-74
2021/08/06 08:50:48;;;;;;;1999.90;999.90;;;;;;;14.02;57.58;100098.22;5020287;27;98800;-74
2021/08/06 08:53:16;;;;;;;1999.90;999.90;;;;;;;14.04;57.35;100101.78;5038619;27;96752;-74
2021/08/06 08:55:44;;;;;;;1999.90;999.90;;;;;;;14.07;57.22;100107.16;5020686;27;97419;-74
2021/08/06 08:58:13;;;;;;;1999.90;999.90;;;;;;;14.08;57.32;100103.56;5036084;27;100129;-74
2021/08/06 09:00:43;;;;;;;1999.90;999.90;;;;;;;14.40;56.66;100106.09;5013315;27;99576;-73
2021/08/06 09:03:35;;;;;;;1999.90;999.90;;;;;;;14.32;57.48;100097.22;5016460;27;97725;-73
2021/08/06 09:06:03;;;;;;;1999.90;999.90;;;;;;;14.39;56.90;100100.78;5001164;28;97491;-74
2021/08/06 09:08:31;;;;;;;1999.90;999.90;;;;;;;14.45;56.84;100095.34;5000853;27;99912;-74
2021/08/06 09:11:33;;;;;;;1999.90;999.90;;;;;;;14.75;56.76;100092.53;5014476;27;98040;-74
2021/08/06 09:14:24;;;;;;;1999.90;999.90;;;;;;;14.72;56.53;100089.88;5019539;27;97117;-74
2021/08/06 09:17:00;;;;;;;1999.90;999.90;;;;;;;14.77;56.76;100088.94;5019030;27;97229;-74
2021/08/06 09:19:29;;;;;;;1999.90;999.90;;;;;;;14.82;56.51;100081.78;5020666;27;100885;-73
2021/08/06 09:22:16;;;;;;;1999.90;999.90;;;;;;;14.88;56.84;100086.22;5018065;27;99346;-74
2021/08/06 09:25:02;;;;;;;1999.90;999.90;;;;;;;14.95;56.85;100075.44;5019485;27;96845;-72
2021/08/06 09:27:32;;;;;;;1999.90;999.90;;;;;;;15.02;56.42;100078.94;5003864;27;96932;-74
2021/08/06 09:30:01;;;;;;;1999.90;999.90;;;;;;;15.07;55.96;100077.09;5029169;27;97934;-73
2021/08/06 09:32:45;;;;;;;1999.90;999.90;;;;;;;15.14;56.41;100081.50;5015219;27;97935;-73
2021/08/06 09:35:15;;;;;;;1999.90;999.90;;;;;;;15.20;55.86;100076.09;5017335;27;97744;-74
2021/08/06 09:37:43;;;;;;;1999.90;999.90;;;;;;;15.24;55.72;100075.19;5017077;27;97994;-74
2021/08/06 09:40:17;;;;;;;1999.90;999.90;;;;;;;15.47;55.29;100069.59;5016337;27;99681;-74
2021/08/06 09:42:51;;;;;;;1999.90;999.90;;;;;;;15.57;55.26;100072.19;5011361;27;98052;-74
2021/08/06 09:45:21;;;;;;;1999.90;999.90;;;;;;;15.50;55.79;100059.72;5020488;27;97192;-74
2021/08/06 09:47:56;;;;;;;1999.90;999.90;;;;;;;15.53;55.44;100077.59;5000150;28;97935;-73
2021/08/06 09:50:29;;;;;;;1999.90;999.90;;;;;;;15.52;55.60;100065.97;5017209;27;97761;-74
2021/08/06 09:52:57;;;;;;;1999.90;999.90;;;;;;;15.52;55.43;100067.78;5018699;27;100089;-74
2021/08/06 09:55:27;;;;;;;1999.90;999.90;;;;;;;15.53;55.67;100065.09;5020607;27;97700;-74
2021/08/06 09:57:56;;;;;;;1999.90;999.90;;;;;;;15.57;55.60;100064.16;5015993;27;98003;-72
2021/08/06 10:00:26;;;;;;;1999.90;999.90;;;;;;;15.60;55.26;100063.22;5013572;27;100946;-74
2021/08/06 10:02:56;;;;;;;1999.90;999.90;;;;;;;15.59;55.43;100059.66;5016249;27;99026;-73
2021/08/06 10:05:26;;;;;;;1999.90;999.90;;;;;;;15.62;54.97;100061.41;5012075;27;97373;-74
2021/08/06 10:07:55;;;;;;;1999.90;999.90;;;;;;;15.64;55.36;100055.13;5036445;27;97700;-74
2021/08/06 10:10:24;;;;;;;1999.90;999.90;;;;;;;15.68;55.29;100062.25;5015479;27;97709;-74
2021/08/06 10:12:53;;;;;;;1999.90;999.90;;;;;;;15.75;54.74;100066.63;5018929;27;99985;-74
2021/08/06 10:15:22;;;;;;;1999.90;999.90;;;;;;;15.78;54.79;100061.22;5019179;27;97062;-74
2021/08/06 10:17:51;;;;;;;1999.90;999.90;;;;;;;15.84;54.84;100061.16;5018026;27;97409;-73
2021/08/06 10:20:22;;;;;;;1999.90;999.90;;;;;;;15.89;54.71;100058.41;5019188;27;98686;-73
2021/08/06 10:22:50;;;;;;;1999.90;999.90;;;;;;;15.94;54.52;100052.06;5018527;27;97617;-74
2021/08/06 10:25:19;;;;;;;1999.90;999.90;;;;;;;15.99;54.44;100050.25;5018364;27;97792;-73
2021/08/06 10:27:49;;;;;;;1999.90;999.90;;;;;;;16.05;54.43;100043.91;5002986;28;97683;-74
2021/08/06 10:30:23;;;;;;;1999.90;999.90;;;;;;;16.15;54.25;100047.38;5010928;27;99049;-74
2021/08/06 10:33:09;;;;;;;1999.90;999.90;;;;;;;16.20;52.58;100040.16;4998804;27;99235;-73
2021/08/06 10:35:49;;;;;;;1999.90;999.90;;;;;;;16.30;53.67;100044.50;5015843;27;98665;-74
2021/08/06 10:38:33;;;;;;;1999.90;999.90;;;;;;;16.35;53.63;100031.88;5018984;27;97186;-73
2021/08/06 10:41:01;;;;;;;1999.90;999.90;;;;;;;16.42;53.54;100037.16;5034066;27;99601;-73
2021/08/06 10:43:52;;;;;;;1999.90;999.90;;;;;;;16.49;53.35;100025.41;5017942;27;99386;-74
2021/08/06 10:46:23;;;;;;;1999.90;999.90;;;;;;;16.57;53.25;100034.25;5017051;27;97323;-73
2021/08/06 10:48:52;;;;;;;1999.90;999.90;;;;;;;16.64;53.00;100027.84;5015287;27;96984;-72
2021/08/06 10:51:27;;;;;;;1999.90;999.90;;;;;;;16.68;52.88;100026.91;5017451;27;97932;-74
2021/08/06 10:54:33;;;;;;;1999.90;999.90;;;;;;;16.73;52.86;100021.47;5019695;27;97685;-73
2021/08/06 10:57:38;;;;;;;1999.90;999.90;;;;;;;16.83;52.57;100017.75;5017026;27;96848;-74
2021/08/06 11:00:07;;;;;;;1999.90;999.90;;;;;;;16.93;52.64;100008.59;5014423;27;96751;-73
2021/08/06 11:02:48;;;;;;;1999.90;999.90;;;;;;;17.01;52.32;100009.38;5018940;27;98201;-74